createdAt,value
2022-11-05T00:00:50.303Z,5.93
2022-11-05T00:02:07.335Z,5.86
2022-11-05T00:03:24.560Z,5.91
2022-11-05T00:04:41.699Z,5.86
2022-11-05T00:06:00.575Z,5.86
2022-11-05T00:07:22.715Z,5.88
2022-11-05T00:08:39.784Z,5.84
2022-11-05T00:09:44.664Z,5.89
2022-11-05T00:10:46.999Z,5.94
2022-11-05T00:12:06.680Z,5.97
2022-11-05T00:13:25.519Z,5.93
2022-11-05T00:14:42.639Z,5.88
2022-11-05T00:15:59.888Z,5.88
2022-11-05T00:17:04.500Z,5.91
2022-11-05T00:18:06.491Z,5.89
2022-11-05T00:19:11.081Z,5.88
2022-11-05T00:20:13.760Z,5.85
2022-11-05T00:21:30.611Z,5.82
2022-11-05T00:22:47.649Z,5.83
2022-11-05T00:24:04.714Z,5.85
2022-11-05T00:25:22.184Z,5.81
2022-11-05T00:26:24.226Z,5.83
2022-11-05T00:27:31.445Z,5.81
2022-11-05T00:28:36.673Z,5.81
2022-11-05T00:29:38.657Z,5.82
2022-11-05T00:30:43.342Z,5.80
2022-11-05T00:31:45.404Z,5.85
2022-11-05T00:32:51.495Z,5.88
2022-11-05T00:33:53.492Z,5.87
2022-11-05T00:34:58.088Z,5.86
2022-11-05T00:36:04.767Z,5.82
2022-11-05T00:37:06.804Z,5.86
2022-11-05T00:38:11.541Z,5.88
2022-11-05T00:39:13.580Z,5.86
2022-11-05T00:40:18.270Z,5.86
2022-11-05T00:41:20.231Z,5.80
2022-11-05T00:42:37.296Z,5.78
2022-11-05T00:43:56.921Z,5.89
2022-11-05T00:45:05.012Z,5.88
2022-11-05T00:46:09.823Z,5.84
2022-11-05T00:47:26.799Z,5.90
2022-11-05T00:48:43.824Z,5.87
2022-11-05T00:49:45.822Z,5.91
2022-11-05T00:50:50.433Z,5.94
2022-11-05T00:52:12.531Z,5.89
2022-11-05T00:53:17.110Z,5.86
2022-11-05T00:54:19.269Z,5.83
2022-11-05T00:55:23.894Z,5.81
2022-11-05T00:56:28.512Z,5.85
2022-11-05T00:57:30.537Z,5.81
2022-11-05T00:58:35.142Z,5.79
2022-11-05T00:59:39.769Z,5.80
2022-11-05T01:00:46.408Z,5.84
2022-11-05T01:01:48.496Z,5.83
2022-11-05T01:02:53.354Z,5.86
2022-11-05T01:03:58.023Z,5.92
2022-11-05T01:05:00.043Z,5.93
2022-11-05T01:06:10.753Z,5.90
2022-11-05T01:07:12.825Z,5.91
2022-11-05T01:08:18.877Z,5.89
2022-11-05T01:09:20.876Z,5.91
2022-11-05T01:10:25.930Z,5.89
2022-11-05T01:11:37.340Z,5.88
2022-11-05T01:12:39.842Z,5.92
2022-11-05T01:13:44.503Z,5.89
2022-11-05T01:14:49.191Z,5.90
2022-11-05T01:15:54.174Z,5.87
2022-11-05T01:16:56.259Z,5.89
2022-11-05T01:18:00.905Z,5.85
2022-11-05T01:19:05.650Z,5.91
2022-11-05T01:20:11.248Z,5.96
2022-11-05T01:21:14.616Z,5.87
2022-11-05T01:22:19.219Z,5.80
2022-11-05T01:23:23.771Z,5.88
2022-11-05T01:24:25.872Z,5.89
2022-11-05T01:25:30.531Z,5.83
2022-11-05T01:26:32.524Z,5.80
2022-11-05T01:27:38.215Z,5.84
2022-11-05T01:28:40.390Z,5.83
2022-11-05T01:29:45.107Z,5.85
2022-11-05T01:30:58.399Z,5.88
2022-11-05T01:32:00.795Z,5.93
2022-11-05T01:33:06.104Z,5.94
2022-11-05T01:34:08.260Z,5.96
2022-11-05T01:35:16.975Z,5.97
2022-11-05T01:36:19.447Z,6.00
2022-11-05T01:37:24.018Z,5.95
2022-11-05T01:38:26.050Z,5.99
2022-11-05T01:39:30.750Z,5.99
2022-11-05T01:40:35.327Z,5.94
2022-11-05T01:41:37.415Z,5.98
2022-11-05T01:42:42.158Z,5.94
2022-11-05T01:43:49.499Z,5.96
2022-11-05T01:45:00.945Z,6.01
2022-11-05T01:46:05.822Z,5.98
2022-11-05T01:47:14.492Z,5.97
2022-11-05T01:48:23.419Z,5.94
2022-11-05T01:49:31.859Z,5.97
2022-11-05T01:50:47.340Z,6.03
2022-11-05T01:51:49.671Z,6.00
2022-11-05T01:52:59.860Z,6.00
2022-11-05T01:54:07.916Z,6.04
2022-11-05T01:55:11.359Z,5.97
2022-11-05T01:56:19.145Z,5.94
2022-11-05T01:57:21.527Z,5.94
2022-11-05T01:58:31.623Z,5.93
2022-11-05T01:59:37.986Z,5.97
2022-11-05T02:00:43.950Z,6.01
2022-11-05T02:01:48.955Z,5.97
2022-11-05T02:02:53.775Z,6.03
2022-11-05T02:04:02.659Z,5.93
2022-11-05T02:05:08.196Z,6.03
2022-11-05T02:06:14.068Z,5.98
2022-11-05T02:07:17.390Z,6.01
2022-11-05T02:08:31.734Z,5.93
2022-11-05T02:09:39.588Z,6.00
2022-11-05T02:10:47.580Z,5.94
2022-11-05T02:11:51.178Z,5.92
2022-11-05T02:12:55.854Z,5.89
2022-11-05T02:13:58.039Z,5.85
2022-11-05T02:15:03.116Z,5.90
2022-11-05T02:16:17.858Z,5.91
2022-11-05T02:17:30.904Z,6.00
2022-11-05T02:18:47.165Z,5.97
2022-11-05T02:20:26.863Z,5.93
2022-11-05T02:21:46.571Z,5.85
2022-11-05T02:23:20.021Z,5.84
2022-11-05T02:24:57.564Z,5.92
2022-11-05T02:26:43.384Z,5.88
2022-11-05T02:28:13.290Z,5.87
2022-11-05T02:29:47.757Z,5.87
2022-11-05T02:30:59.687Z,5.83
2022-11-05T02:32:09.779Z,5.89
2022-11-05T02:33:33.941Z,5.89
2022-11-05T02:34:49.418Z,5.89
2022-11-05T02:36:10.593Z,5.89
2022-11-05T02:37:20.046Z,5.89
2022-11-05T02:38:39.183Z,5.90
2022-11-05T02:39:49.731Z,5.87
2022-11-05T02:41:04.342Z,5.95
2022-11-05T02:42:14.286Z,5.96
2022-11-05T02:43:27.737Z,5.97
2022-11-05T02:44:40.525Z,5.97
2022-11-05T02:45:55.297Z,6.01
2022-11-05T02:47:07.898Z,6.06
2022-11-05T02:48:22.604Z,5.97
2022-11-05T02:49:34.708Z,5.99
2022-11-05T02:50:48.326Z,6.04
2022-11-05T02:51:56.883Z,6.03
2022-11-05T02:53:05.033Z,6.00
2022-11-05T02:54:13.028Z,5.99
2022-11-05T02:55:25.764Z,6.03
2022-11-05T02:56:31.407Z,6.06
2022-11-05T02:57:39.121Z,6.02
2022-11-05T02:58:42.217Z,6.07
2022-11-05T02:59:46.927Z,6.07
2022-11-05T03:00:51.909Z,6.04
2022-11-05T03:01:57.385Z,6.07
2022-11-05T03:03:03.362Z,6.11
2022-11-05T03:04:11.185Z,6.09
2022-11-05T03:05:13.301Z,6.15
2022-11-05T03:06:34.655Z,6.15
2022-11-05T03:07:50.572Z,6.18
2022-11-05T03:09:26.196Z,6.15
2022-11-05T03:10:44.340Z,6.19
2022-11-05T03:11:56.539Z,6.14
2022-11-05T03:13:13.804Z,6.24
2022-11-05T03:14:23.274Z,6.20
2022-11-05T03:15:40.812Z,6.12
2022-11-05T03:16:49.034Z,6.16
2022-11-05T03:18:01.994Z,6.12
2022-11-05T03:19:13.527Z,6.10
2022-11-05T03:20:22.323Z,6.13
2022-11-05T03:21:35.380Z,6.07
2022-11-05T03:22:44.286Z,6.08
2022-11-05T03:23:52.135Z,6.08
2022-11-05T03:25:03.306Z,6.08
2022-11-05T03:26:12.789Z,6.08
2022-11-05T03:27:20.647Z,6.11
2022-11-05T03:28:27.894Z,6.15
2022-11-05T03:29:37.520Z,6.13
2022-11-05T03:30:42.621Z,6.14
2022-11-05T03:31:50.431Z,6.22
2022-11-05T03:32:57.850Z,6.18
2022-11-05T03:34:04.065Z,6.13
2022-11-05T03:35:13.415Z,6.08
2022-11-05T03:36:24.539Z,6.07
2022-11-05T03:37:30.111Z,6.03
2022-11-05T03:38:39.600Z,6.14
2022-11-05T03:39:44.762Z,6.19
2022-11-05T03:40:52.404Z,6.11
2022-11-05T03:41:56.118Z,6.09
2022-11-05T03:43:02.251Z,6.13
2022-11-05T03:44:06.835Z,6.07
2022-11-05T03:45:16.251Z,6.03
2022-11-05T03:46:23.473Z,6.02
2022-11-05T03:47:43.756Z,6.01
2022-11-05T03:48:53.201Z,5.99
2022-11-05T03:50:04.920Z,6.03
2022-11-05T03:51:17.169Z,6.04
2022-11-05T03:52:20.979Z,6.08
2022-11-05T03:53:29.010Z,6.02
2022-11-05T03:54:31.148Z,6.01
2022-11-05T03:55:41.292Z,6.00
2022-11-05T03:56:51.417Z,6.07
2022-11-05T03:57:58.621Z,6.09
2022-11-05T03:59:02.828Z,6.04
2022-11-05T04:00:11.708Z,6.09
2022-11-05T04:01:14.033Z,6.04
2022-11-05T04:02:21.409Z,6.03
2022-11-05T04:03:23.455Z,6.01
2022-11-05T04:04:28.138Z,6.04
2022-11-05T04:05:30.712Z,6.07
2022-11-05T04:06:50.830Z,6.01
2022-11-05T04:08:13.051Z,6.04
2022-11-05T04:09:31.273Z,6.03
2022-11-05T04:11:00.108Z,6.07
2022-11-05T04:12:17.196Z,6.04
2022-11-05T04:13:27.983Z,6.02
2022-11-05T04:14:31.109Z,6.04
2022-11-05T04:15:55.971Z,6.12
2022-11-05T04:17:07.108Z,6.20
2022-11-05T04:18:09.138Z,6.17
2022-11-05T04:19:11.210Z,6.15
2022-11-05T04:20:28.489Z,6.16
2022-11-05T04:21:45.587Z,6.16
2022-11-05T04:23:14.021Z,6.14
2022-11-05T04:24:18.660Z,6.15
2022-11-05T04:25:22.111Z,6.10
2022-11-05T04:26:26.713Z,6.14
2022-11-05T04:27:28.845Z,6.23
2022-11-05T04:28:45.717Z,6.20
2022-11-05T04:30:02.859Z,6.15
2022-11-05T04:31:07.819Z,6.16
2022-11-05T04:32:09.811Z,6.14
2022-11-05T04:33:16.272Z,6.14
2022-11-05T04:34:19.057Z,6.13
2022-11-05T04:35:23.664Z,6.15
2022-11-05T04:36:25.678Z,6.16
2022-11-05T04:37:30.254Z,6.16
2022-11-05T04:38:37.408Z,6.14
2022-11-05T04:39:39.406Z,6.15
2022-11-05T04:40:44.683Z,6.22
2022-11-05T04:41:48.252Z,6.27
2022-11-05T04:42:52.863Z,6.22
2022-11-05T04:43:54.864Z,6.18
2022-11-05T04:44:59.476Z,6.20
2022-11-05T04:46:01.575Z,6.30
2022-11-05T04:47:06.197Z,6.25
2022-11-05T04:48:08.421Z,6.24
2022-11-05T04:49:13.038Z,6.23
2022-11-05T04:50:15.149Z,6.25
2022-11-05T04:51:20.434Z,6.19
2022-11-05T04:52:22.395Z,6.19
2022-11-05T04:53:26.979Z,6.16
2022-11-05T04:54:31.645Z,6.24
2022-11-05T04:55:36.247Z,6.29
2022-11-05T04:56:38.219Z,6.23
2022-11-05T04:57:43.070Z,6.22
2022-11-05T04:58:45.442Z,6.15
2022-11-05T04:59:52.129Z,6.16
2022-11-05T05:00:54.237Z,6.12
2022-11-05T05:01:59.163Z,6.09
2022-11-05T05:03:01.714Z,6.08
2022-11-05T05:04:06.513Z,6.05
2022-11-05T05:05:08.900Z,6.07
2022-11-05T05:06:14.118Z,6.08
2022-11-05T05:07:16.104Z,6.06
2022-11-05T05:08:20.965Z,6.04
2022-11-05T05:09:22.991Z,6.07
2022-11-05T05:10:30.284Z,6.08
2022-11-05T05:11:32.341Z,6.06
2022-11-05T05:12:37.449Z,6.11
2022-11-05T05:13:39.542Z,6.11
2022-11-05T05:14:44.320Z,6.14
2022-11-05T05:15:46.306Z,6.11
2022-11-05T05:16:50.880Z,6.12
2022-11-05T05:17:56.173Z,6.12
2022-11-05T05:18:58.203Z,6.14
2022-11-05T05:20:15.264Z,6.13
2022-11-05T05:21:33.619Z,6.12
2022-11-05T05:22:38.417Z,6.08
2022-11-05T05:23:40.500Z,6.04
2022-11-05T05:24:49.927Z,6.09
2022-11-05T05:25:59.466Z,6.04
2022-11-05T05:27:04.153Z,6.03
2022-11-05T05:28:06.164Z,6.03
2022-11-05T05:29:11.720Z,6.03
2022-11-05T05:30:14.011Z,6.03
2022-11-05T05:31:18.573Z,6.05
2022-11-05T05:32:20.580Z,6.11
2022-11-05T05:33:25.208Z,6.07
2022-11-05T05:34:27.197Z,6.05
2022-11-05T05:35:31.752Z,6.03
2022-11-05T05:36:34.048Z,6.01
2022-11-05T05:37:38.687Z,6.02
2022-11-05T05:38:40.796Z,5.99
2022-11-05T05:39:46.315Z,5.99
2022-11-05T05:40:49.674Z,5.97
2022-11-05T05:41:56.867Z,5.98
2022-11-05T05:42:59.036Z,5.96
2022-11-05T05:44:03.838Z,5.95
2022-11-05T05:45:07.068Z,5.98
2022-11-05T05:46:14.205Z,6.03
2022-11-05T05:47:16.196Z,5.97
2022-11-05T05:48:20.913Z,6.04
2022-11-05T05:49:22.867Z,6.11
2022-11-05T05:50:27.477Z,6.14
2022-11-05T05:51:29.495Z,6.08
2022-11-05T05:52:34.841Z,6.08
2022-11-05T05:53:37.502Z,6.10
2022-11-05T05:54:43.093Z,6.03
2022-11-05T05:55:45.266Z,6.10
2022-11-05T05:56:49.856Z,6.01
2022-11-05T05:57:54.688Z,6.02
2022-11-05T05:58:59.399Z,6.00
2022-11-05T06:00:02.030Z,6.10
2022-11-05T06:01:09.599Z,6.07
2022-11-05T06:02:13.549Z,6.07
2022-11-05T06:03:18.302Z,6.11
2022-11-05T06:04:23.429Z,6.10
2022-11-05T06:05:25.481Z,6.09
2022-11-05T06:06:30.211Z,6.13
2022-11-05T06:07:36.982Z,6.11
2022-11-05T06:08:42.659Z,6.09
2022-11-05T06:09:44.679Z,6.10
2022-11-05T06:10:53.468Z,6.06
2022-11-05T06:11:55.543Z,6.03
2022-11-05T06:13:04.743Z,6.06
2022-11-05T06:14:07.013Z,6.03
2022-11-05T06:15:12.519Z,6.01
2022-11-05T06:16:14.578Z,6.04
2022-11-05T06:17:19.181Z,6.06
2022-11-05T06:18:21.187Z,6.08
2022-11-05T06:19:25.934Z,6.12
2022-11-05T06:20:27.892Z,6.15
2022-11-05T06:21:32.422Z,6.15
2022-11-05T06:22:34.432Z,6.15
2022-11-05T06:23:41.079Z,6.14
2022-11-05T06:24:43.118Z,6.09
2022-11-05T06:25:47.768Z,6.14
2022-11-05T06:26:49.818Z,6.09
2022-11-05T06:27:54.463Z,6.08
2022-11-05T06:29:01.667Z,6.15
2022-11-05T06:30:04.522Z,6.07
2022-11-05T06:31:09.286Z,6.05
2022-11-05T06:32:11.297Z,6.04
2022-11-05T06:33:15.949Z,6.04
2022-11-05T06:34:17.939Z,6.03
2022-11-05T06:35:22.567Z,6.03
2022-11-05T06:36:24.576Z,6.03
2022-11-05T06:37:29.155Z,6.08
2022-11-05T06:38:33.500Z,6.10
2022-11-05T06:39:38.116Z,6.12
2022-11-05T06:40:40.241Z,6.13
2022-11-05T06:42:12.055Z,6.09
2022-11-05T06:43:10.903Z,6.03
2022-11-05T06:44:15.684Z,6.03
2022-11-05T06:45:20.249Z,5.99
2022-11-05T06:46:22.236Z,6.00
2022-11-05T06:47:27.057Z,5.99
2022-11-05T06:48:29.671Z,5.98
2022-11-05T06:49:34.311Z,6.07
2022-11-05T06:50:36.342Z,6.03
2022-11-05T06:51:40.932Z,6.03
2022-11-05T06:52:42.945Z,6.09
2022-11-05T06:53:47.608Z,6.13
2022-11-05T06:54:49.648Z,6.13
2022-11-05T06:55:54.259Z,6.12
2022-11-05T06:56:56.269Z,6.10
2022-11-05T06:58:00.872Z,6.13
2022-11-05T06:59:03.021Z,6.14
2022-11-05T07:00:12.036Z,6.16
2022-11-05T07:01:16.839Z,6.13
2022-11-05T07:02:19.031Z,6.16
2022-11-05T07:03:23.740Z,6.14
2022-11-05T07:04:25.742Z,6.15
2022-11-05T07:05:30.342Z,6.11
2022-11-05T07:06:37.141Z,6.07
2022-11-05T07:07:39.663Z,6.05
2022-11-05T07:08:44.304Z,6.11
2022-11-05T07:09:46.314Z,6.10
2022-11-05T07:10:51.377Z,6.14
2022-11-05T07:11:53.462Z,6.14
2022-11-05T07:12:59.709Z,6.15
2022-11-05T07:14:04.492Z,6.18
2022-11-05T07:15:14.109Z,6.19
2022-11-05T07:16:16.121Z,6.24
2022-11-05T07:17:21.184Z,6.24
2022-11-05T07:18:23.938Z,6.29
2022-11-05T07:19:28.648Z,6.36
2022-11-05T07:20:34.182Z,6.36
2022-11-05T07:21:39.171Z,6.37
2022-11-05T07:22:41.348Z,6.42
2022-11-05T07:23:45.972Z,6.35
2022-11-05T07:24:49.526Z,6.35
2022-11-05T07:25:54.344Z,6.35
2022-11-05T07:26:56.412Z,6.37
2022-11-05T07:28:01.745Z,6.38
2022-11-05T07:29:03.862Z,6.37
2022-11-05T07:30:13.114Z,6.39
2022-11-05T07:31:15.160Z,6.28
2022-11-05T07:32:19.929Z,6.29
2022-11-05T07:33:22.229Z,6.27
2022-11-05T07:34:26.898Z,6.30
2022-11-05T07:35:29.114Z,6.37
2022-11-05T07:36:33.959Z,6.31
2022-11-05T07:37:42.978Z,6.33
2022-11-05T07:38:47.584Z,6.42
2022-11-05T07:39:49.627Z,6.32
2022-11-05T07:40:54.636Z,6.37
2022-11-05T07:41:57.859Z,6.40
2022-11-05T07:43:04.176Z,6.47
2022-11-05T07:44:06.423Z,6.42
2022-11-05T07:45:14.610Z,6.39
2022-11-05T07:46:16.662Z,6.40
2022-11-05T07:47:21.317Z,6.38
2022-11-05T07:48:25.930Z,6.41
2022-11-05T07:49:28.003Z,6.42
2022-11-05T07:50:34.640Z,6.43
2022-11-05T07:51:36.709Z,6.42
2022-11-05T07:52:41.508Z,6.41
2022-11-05T07:53:45.506Z,6.35
2022-11-05T07:54:50.322Z,6.35
2022-11-05T07:55:57.268Z,6.39
2022-11-05T07:56:59.270Z,6.37
2022-11-05T07:58:03.923Z,6.33
2022-11-05T07:59:06.223Z,6.36
2022-11-05T08:00:18.268Z,6.29
2022-11-05T08:01:20.410Z,6.37
2022-11-05T08:02:25.468Z,6.41
2022-11-05T08:03:27.799Z,6.38
2022-11-05T08:04:32.485Z,6.42
2022-11-05T08:05:39.336Z,6.36
2022-11-05T08:06:41.371Z,6.40
2022-11-05T08:07:45.971Z,6.35
2022-11-05T08:08:48.076Z,6.34
2022-11-05T08:09:52.706Z,6.37
2022-11-05T08:10:57.341Z,6.39
2022-11-05T08:12:02.839Z,6.45
2022-11-05T08:13:09.033Z,6.48
2022-11-05T08:14:11.382Z,6.48
2022-11-05T08:15:18.808Z,6.46
2022-11-05T08:16:20.858Z,6.47
2022-11-05T08:17:25.692Z,6.50
2022-11-05T08:18:31.791Z,6.47
2022-11-05T08:19:36.587Z,6.56
2022-11-05T08:20:38.922Z,6.66
2022-11-05T08:21:43.715Z,6.59
2022-11-05T08:22:49.167Z,6.70
2022-11-05T08:23:51.249Z,6.83
2022-11-05T08:24:56.011Z,6.91
2022-11-05T08:25:58.729Z,6.80
2022-11-05T08:27:03.458Z,6.80
2022-11-05T08:28:08.174Z,6.77
2022-11-05T08:29:13.104Z,6.72
2022-11-05T08:30:17.921Z,6.75
2022-11-05T08:31:22.522Z,6.80
2022-11-05T08:32:24.595Z,6.85
2022-11-05T08:33:31.458Z,6.82
2022-11-05T08:34:33.727Z,6.92
2022-11-05T08:35:40.287Z,6.93
2022-11-05T08:36:46.888Z,6.88
2022-11-05T08:37:48.971Z,6.75
2022-11-05T08:38:54.607Z,6.68
2022-11-05T08:39:59.188Z,6.68
2022-11-05T08:41:01.284Z,6.70
2022-11-05T08:42:06.065Z,6.77
2022-11-05T08:43:10.186Z,6.82
2022-11-05T08:44:15.115Z,6.81
2022-11-05T08:45:19.839Z,6.79
2022-11-05T08:46:24.575Z,6.73
2022-11-05T08:47:26.617Z,6.82
2022-11-05T08:48:31.506Z,6.83
2022-11-05T08:49:36.153Z,6.77
2022-11-05T08:50:39.117Z,6.80
2022-11-05T08:51:43.738Z,6.77
2022-11-05T08:52:45.764Z,6.85
2022-11-05T08:53:50.401Z,6.72
2022-11-05T08:54:52.423Z,6.78
2022-11-05T08:56:01.220Z,6.79
2022-11-05T08:57:05.922Z,6.80
2022-11-05T08:58:12.589Z,6.83
2022-11-05T08:59:17.414Z,6.78
2022-11-05T09:00:22.195Z,6.77
2022-11-05T09:01:26.991Z,6.70
2022-11-05T09:02:29.211Z,6.78
2022-11-05T09:03:34.016Z,6.82
2022-11-05T09:04:41.602Z,6.85
2022-11-05T09:05:43.830Z,6.81
2022-11-05T09:06:48.603Z,6.82
2022-11-05T09:07:53.155Z,6.78
2022-11-05T09:09:01.388Z,6.83
2022-11-05T09:10:04.097Z,6.85
2022-11-05T09:11:09.142Z,6.91
2022-11-05T09:12:14.214Z,6.93
2022-11-05T09:13:19.904Z,6.88
2022-11-05T09:14:27.158Z,6.89
2022-11-05T09:15:32.288Z,6.90
2022-11-05T09:16:37.077Z,6.99
2022-11-05T09:17:40.112Z,7.01
2022-11-05T09:18:44.782Z,7.07
2022-11-05T09:19:47.375Z,7.20
2022-11-05T09:20:52.154Z,7.25
2022-11-05T09:21:59.411Z,7.28
2022-11-05T09:23:04.136Z,7.35
2022-11-05T09:24:09.320Z,7.23
2022-11-05T09:25:11.672Z,7.44
2022-11-05T09:26:16.951Z,7.52
2022-11-05T09:27:19.197Z,7.53
2022-11-05T09:28:25.619Z,7.65
2022-11-05T09:29:27.809Z,7.70
2022-11-05T09:30:35.050Z,7.79
2022-11-05T09:31:39.690Z,7.95
2022-11-05T09:32:42.141Z,8.09
2022-11-05T09:33:46.794Z,8.12
2022-11-05T09:34:50.123Z,8.22
2022-11-05T09:35:55.722Z,8.29
2022-11-05T09:36:58.350Z,8.17
2022-11-05T09:38:03.356Z,8.29
2022-11-05T09:39:05.645Z,8.33
2022-11-05T09:40:11.038Z,8.39
2022-11-05T09:41:23.886Z,8.51
2022-11-05T09:42:30.374Z,8.59
2022-11-05T09:43:39.922Z,8.42
2022-11-05T09:44:46.160Z,8.52
2022-11-05T09:45:59.442Z,8.62
2022-11-05T09:47:05.758Z,8.46
2022-11-05T09:48:17.308Z,8.22
2022-11-05T09:49:29.153Z,8.21
2022-11-05T09:50:34.882Z,8.26
2022-11-05T09:51:40.130Z,8.35
2022-11-05T09:52:42.138Z,8.35
2022-11-05T09:53:49.055Z,8.14
2022-11-05T09:54:51.643Z,8.17
2022-11-05T09:55:59.109Z,8.19
2022-11-05T09:57:03.607Z,8.28
2022-11-05T09:58:18.061Z,8.23
2022-11-05T09:59:23.375Z,8.48
2022-11-05T10:00:30.616Z,8.33
2022-11-05T10:01:38.060Z,8.28
2022-11-05T10:02:53.263Z,8.39
2022-11-05T10:04:02.259Z,8.46
2022-11-05T10:05:10.298Z,8.64
2022-11-05T10:06:21.618Z,8.88
2022-11-05T10:07:29.806Z,8.64
2022-11-05T10:08:35.042Z,8.86
2022-11-05T10:09:46.462Z,9.13
2022-11-05T10:10:54.080Z,9.30
2022-11-05T10:12:16.671Z,8.87
2022-11-05T10:13:26.085Z,8.82
2022-11-05T10:14:34.753Z,8.81
2022-11-05T10:15:43.056Z,8.63
2022-11-05T10:16:56.513Z,8.89
2022-11-05T10:18:03.717Z,9.08
2022-11-05T10:19:12.892Z,8.90
2022-11-05T10:20:23.674Z,8.45
2022-11-05T10:21:59.522Z,8.43
2022-11-05T10:22:59.537Z,8.47
2022-11-05T10:24:08.594Z,8.52
2022-11-05T10:25:21.362Z,8.52
2022-11-05T10:26:30.109Z,8.46
2022-11-05T10:27:37.019Z,8.37
2022-11-05T10:28:42.209Z,8.09
2022-11-05T10:29:45.013Z,8.16
2022-11-05T10:30:53.053Z,8.12
2022-11-05T10:32:03.066Z,8.13
2022-11-05T10:33:07.470Z,8.07
2022-11-05T10:34:17.983Z,7.97
2022-11-05T10:35:22.740Z,8.01
2022-11-05T10:36:32.153Z,8.01
2022-11-05T10:37:39.562Z,8.03
2022-11-05T10:38:45.584Z,7.87
2022-11-05T10:39:51.679Z,7.90
2022-11-05T10:41:07.042Z,7.72
2022-11-05T10:42:37.142Z,7.62
2022-11-05T10:43:45.287Z,7.67
2022-11-05T10:44:56.147Z,7.57
2022-11-05T10:46:06.446Z,7.63
2022-11-05T10:47:30.125Z,7.53
2022-11-05T10:48:52.512Z,7.48
2022-11-05T10:49:58.848Z,7.40
2022-11-05T10:51:04.653Z,7.31
2022-11-05T10:52:21.930Z,7.28
2022-11-05T10:53:35.134Z,7.22
2022-11-05T10:54:40.048Z,7.25
2022-11-05T10:55:47.368Z,7.27
2022-11-05T10:56:52.111Z,7.40
2022-11-05T10:57:54.643Z,7.39
2022-11-05T10:59:06.691Z,7.45
2022-11-05T11:00:30.687Z,7.45
2022-11-05T11:01:33.576Z,7.28
2022-11-05T11:02:41.124Z,7.30
2022-11-05T11:03:49.346Z,7.38
2022-11-05T11:04:53.490Z,7.34
2022-11-05T11:06:04.356Z,7.43
2022-11-05T11:07:22.302Z,7.32
2022-11-05T11:08:25.525Z,7.29
2022-11-05T11:09:34.280Z,7.28
2022-11-05T11:10:40.839Z,7.20
2022-11-05T11:11:46.076Z,7.22
2022-11-05T11:12:49.867Z,7.30
2022-11-05T11:14:02.932Z,7.28
2022-11-05T11:15:17.466Z,7.24
2022-11-05T11:16:22.526Z,7.14
2022-11-05T11:17:32.110Z,7.20
2022-11-05T11:18:40.404Z,7.49
2022-11-05T11:19:45.381Z,7.67
2022-11-05T11:20:47.413Z,7.57
2022-11-05T11:22:19.505Z,7.75
2022-11-05T11:23:24.239Z,8.08
2022-11-05T11:24:32.499Z,8.10
2022-11-05T11:25:45.628Z,8.21
2022-11-05T11:26:50.259Z,8.40
2022-11-05T11:27:53.367Z,8.49
2022-11-05T11:29:02.025Z,8.42
2022-11-05T11:30:09.349Z,8.18
2022-11-05T11:31:16.246Z,8.04
2022-11-05T11:32:20.654Z,8.10
2022-11-05T11:33:29.531Z,8.20
2022-11-05T11:34:34.382Z,8.36
2022-11-05T11:35:41.449Z,8.52
2022-11-05T11:36:48.655Z,8.41
2022-11-05T11:37:57.274Z,8.46
2022-11-05T11:39:02.900Z,8.15
2022-11-05T11:40:17.958Z,8.26
2022-11-05T11:41:27.080Z,8.00
2022-11-05T11:42:37.563Z,8.05
2022-11-05T11:43:41.683Z,8.00
2022-11-05T11:44:49.433Z,7.87
2022-11-05T11:46:00.656Z,7.60
2022-11-05T11:47:15.702Z,7.67
2022-11-05T11:48:24.697Z,7.51
2022-11-05T11:49:36.706Z,7.75
2022-11-05T11:50:44.588Z,7.81
2022-11-05T11:51:49.996Z,7.53
2022-11-05T11:52:57.565Z,7.34
2022-11-05T11:54:03.535Z,7.35
2022-11-05T11:55:25.303Z,7.40
2022-11-05T11:56:32.573Z,7.47
2022-11-05T11:57:43.835Z,7.38
2022-11-05T11:58:50.547Z,7.31
2022-11-05T12:00:11.548Z,7.31
2022-11-05T12:01:27.654Z,7.33
2022-11-05T12:03:01.866Z,7.20
2022-11-05T12:04:20.844Z,7.01
2022-11-05T12:05:32.810Z,6.99
2022-11-05T12:06:44.251Z,6.92
2022-11-05T12:07:52.938Z,6.88
2022-11-05T12:09:09.921Z,6.79
2022-11-05T12:10:35.871Z,6.88
2022-11-05T12:11:46.690Z,7.04
2022-11-05T12:13:04.157Z,6.87
2022-11-05T12:14:25.507Z,6.86
2022-11-05T12:15:42.682Z,6.76
2022-11-05T12:17:03.930Z,6.73
2022-11-05T12:18:09.958Z,6.83
2022-11-05T12:19:27.649Z,6.98
2022-11-05T12:21:04.015Z,6.88
2022-11-05T12:22:20.949Z,6.77
2022-11-05T12:23:43.233Z,6.65
